Time;durP1;ratioP1;P1;durP2;ratioP2;P2;SDS_P1;SDS_P2;PMS_P1;PMS_P2;Temp;Humidity;BMP_temperature;BMP_pressure;BME280_temperature;BME280_humidity;BME280_pressure;Samples;Min_cycle;Max_cycle;Signal;HPM_P1;HPM_P2
2023/10/21 00:01:29;;;;;;;;;;;;;;;12.53;88.92;99106.31;5033301;28;19967;-74
2023/10/21 00:03:54;;;;;;;;;;;;;;;12.47;88.19;99097.31;5033301;28;19912;-74
2023/10/21 00:06:20;;;;;;;;;;;;;;;12.39;88.36;99106.69;5033496;28;20380;-74
2023/10/21 00:08:45;;;;;;;;;;;;;;;11.86;92.01;99104.72;5031970;28;19913;-74
2023/10/21 00:11:12;;;;;;;;;;;;;;;12.04;91.47;99112.88;5027843;28;20001;-73
2023/10/21 00:13:37;;;;;;;;;;;;;;;12.23;90.31;99111.44;5045347;28;19913;-73
2023/10/21 00:16:03;;;;;;;;;;;;;;;12.39;89.56;99115.13;5028542;28;19924;-74
2023/10/21 00:18:28;;;;;;;;;;;;;;;11.96;90.43;99119.41;5013330;28;19949;-73
2023/10/21 00:20:54;;;;;;;;;;;;;;;11.48;93.74;99108.72;5012162;28;20008;-74
2023/10/21 00:23:20;;;;;;;;;;;;;;;11.87;92.02;99108.31;5031283;28;19948;-74
2023/10/21 00:25:45;;;;;;;;;;;;;;;11.62;92.38;99114.78;5032089;28;20050;-74
2023/10/21 00:28:11;;;;;;;;;;;;;;;11.42;94.92;99107.31;5032937;28;20010;-74
2023/10/21 00:30:36;;;;;;;;;;;;;;;11.00;96.76;99099.91;5027876;28;19925;-74
2023/10/21 00:33:01;;;;;;;;;;;;;;;10.74;98.47;99107.44;5028259;28;20058;-74
2023/10/21 00:35:27;;;;;;;;;;;;;;;10.57;98.10;99108.44;5032297;28;20403;-74
2023/10/21 00:37:52;;;;;;;;;;;;;;;10.42;100.00;99109.88;5032712;28;19956;-74
2023/10/21 00:40:17;;;;;;;;;;;;;;;10.61;99.93;99114.97;5030568;28;19923;-73
2023/10/21 00:42:42;;;;;;;;;;;;;;;10.53;100.00;99107.47;5032681;28;19924;-74
2023/10/21 00:45:08;;;;;;;;;;;;;;;10.23;100.00;99111.16;5029231;28;19913;-73
2023/10/21 00:47:33;;;;;;;;;;;;;;;10.47;100.00;99111.66;5027815;28;19913;-74
2023/10/21 00:50:00;;;;;;;;;;;;;;;10.23;100.00;99110.34;5028049;28;20349;-73
2023/10/21 00:52:26;;;;;;;;;;;;;;;10.38;100.00;99101.31;5027868;28;19913;-74
2023/10/21 00:54:53;;;;;;;;;;;;;;;10.60;100.00;99109.69;5013235;28;20007;-73
2023/10/21 00:57:18;;;;;;;;;;;;;;;10.43;100.00;99105.91;5014378;28;20375;-74
2023/10/21 00:59:44;;;;;;;;;;;;;;;10.37;100.00;99098.84;5028116;28;19952;-74
2023/10/21 01:02:12;;;;;;;;;;;;;;;10.16;100.00;99110.06;5027874;28;19914;-74
2023/10/21 01:04:37;;;;;;;;;;;;;;;10.23;100.00;99110.34;5028755;28;19917;-74
2023/10/21 01:07:02;;;;;;;;;;;;;;;10.46;100.00;99115.59;5032398;28;20395;-74
2023/10/21 01:09:27;;;;;;;;;;;;;;;10.33;100.00;99111.91;5027349;28;20319;-74
2023/10/21 01:11:53;;;;;;;;;;;;;;;10.39;100.00;99102.97;5011163;28;19921;-74
2023/10/21 01:14:18;;;;;;;;;;;;;;;10.47;100.00;99100.47;5011086;28;20439;-74
2023/10/21 01:16:43;;;;;;;;;;;;;;;10.31;100.00;99117.03;5010991;28;19940;-74
2023/10/21 01:19:09;;;;;;;;;;;;;;;10.56;100.00;99108.75;5012281;28;19913;-74
2023/10/21 01:21:34;;;;;;;;;;;;;;;10.48;100.00;99107.69;5026786;28;20027;-74
2023/10/21 01:23:59;;;;;;;;;;;;;;;10.70;99.81;99120.47;5012257;28;20384;-74
2023/10/21 01:26:25;;;;;;;;;;;;;;;10.51;100.00;99113.41;5031994;28;19920;-74
2023/10/21 01:28:51;;;;;;;;;;;;;;;10.30;100.00;99109.78;5030555;28;19975;-73
2023/10/21 01:31:16;;;;;;;;;;;;;;;10.31;100.00;99112.22;5030676;28;20363;-74
2023/10/21 01:33:41;;;;;;;;;;;;;;;10.41;100.00;99119.44;5027069;28;20011;-74
2023/10/21 01:36:06;;;;;;;;;;;;;;;10.28;100.00;99106.53;5012152;28;19921;-74
2023/10/21 01:38:32;;;;;;;;;;;;;;;10.58;100.00;99117.63;5012074;28;19913;-74
2023/10/21 01:40:57;;;;;;;;;;;;;;;10.40;100.00;99118.56;5022678;28;20020;-73
2023/10/21 01:43:22;;;;;;;;;;;;;;;10.76;100.00;99110.72;5027071;28;20004;-74
2023/10/21 01:45:48;;;;;;;;;;;;;;;10.52;98.95;99108.63;5032975;28;19921;-74
2023/10/21 01:48:13;;;;;;;;;;;;;;;10.77;99.05;99120.72;5026772;28;19921;-74
2023/10/21 01:50:39;;;;;;;;;;;;;;;10.86;97.45;99109.44;5027113;28;19962;-73
2023/10/21 01:53:05;;;;;;;;;;;;;;;10.61;97.50;99122.53;5011870;28;19975;-74
2023/10/21 01:55:30;;;;;;;;;;;;;;;10.67;97.82;99112.78;5010608;28;19999;-74
2023/10/21 01:57:56;;;;;;;;;;;;;;;10.57;97.83;99129.97;5018806;28;20323;-73
2023/10/21 02:00:21;;;;;;;;;;;;;;;10.32;98.62;99118.66;5029356;28;19913;-74
2023/10/21 02:02:51;;;;;;;;;;;;;;;10.25;100.00;99122.00;5031562;28;19959;-74
2023/10/21 02:05:17;;;;;;;;;;;;;;;10.33;99.62;99120.28;5031572;28;19936;-74
2023/10/21 02:07:42;;;;;;;;;;;;;;;10.56;98.43;99142.31;5031597;28;20360;-74
2023/10/21 02:10:08;;;;;;;;;;;;;;;10.11;100.00;99139.84;5025570;28;20008;-74
2023/10/21 02:12:33;;;;;;;;;;;;;;;10.27;100.00;99141.22;5030106;28;20522;-74
2023/10/21 02:14:58;;;;;;;;;;;;;;;10.12;100.00;99146.25;5029357;28;19913;-74
2023/10/21 02:17:24;;;;;;;;;;;;;;;10.22;100.00;99140.25;5031049;28;20367;-74
2023/10/21 02:19:58;;;;;;;;;;;;;;;10.53;100.00;99146.63;5031338;28;19919;-74
2023/10/21 02:22:26;;;;;;;;;;;;;;;10.58;98.86;99152.00;5035160;28;20433;-73
2023/10/21 02:24:53;;;;;;;;;;;;;;;10.72;98.27;99159.28;5033983;28;19913;-74
2023/10/21 02:27:18;;;;;;;;;;;;;;;11.01;96.78;99152.75;5020745;28;19956;-74
2023/10/21 02:29:44;;;;;;;;;;;;;;;11.12;95.23;99157.91;5014307;28;20400;-74
2023/10/21 02:32:09;;;;;;;;;;;;;;;11.22;94.80;99161.06;5034472;28;19917;-74
2023/10/21 02:34:34;;;;;;;;;;;;;;;11.27;93.76;99174.03;5030217;28;20404;-74
2023/10/21 02:37:00;;;;;;;;;;;;;;;11.19;93.52;99169.34;5015284;28;19925;-74
2023/10/21 02:39:25;;;;;;;;;;;;;;;11.28;92.77;99169.22;5013974;28;19913;-74
2023/10/21 02:41:50;;;;;;;;;;;;;;;11.20;93.13;99169.00;5015417;28;19917;-74
2023/10/21 02:44:16;;;;;;;;;;;;;;;11.35;92.63;99178.72;5022821;28;20007;-74
2023/10/21 02:46:41;;;;;;;;;;;;;;;11.42;92.18;99180.13;5031186;28;19927;-74
2023/10/21 02:49:06;;;;;;;;;;;;;;;11.26;91.55;99182.75;5034763;28;20007;-74
2023/10/21 02:51:32;;;;;;;;;;;;;;;11.29;91.73;99184.88;5033565;28;20402;-74
2023/10/21 02:53:57;;;;;;;;;;;;;;;11.38;91.16;99183.63;5033496;28;19976;-74
2023/10/21 02:56:23;;;;;;;;;;;;;;;11.46;90.71;99186.63;5034679;28;20015;-74
2023/10/21 02:58:48;;;;;;;;;;;;;;;11.38;91.01;99197.63;5033216;28;19913;-74
2023/10/21 03:01:15;;;;;;;;;;;;;;;11.48;90.83;99201.94;5029516;28;20388;-74
2023/10/21 03:03:41;;;;;;;;;;;;;;;11.43;90.31;99198.53;5014777;28;19975;-74
2023/10/21 03:06:08;;;;;;;;;;;;;;;11.35;90.47;99206.72;5014870;28;20304;-74
2023/10/21 03:08:33;;;;;;;;;;;;;;;11.36;90.96;99215.91;5013451;28;19913;-74
2023/10/21 03:11:02;;;;;;;;;;;;;;;10.88;92.27;99209.84;5033481;28;20321;-74
2023/10/21 03:13:27;;;;;;;;;;;;;;;10.57;94.52;99205.47;5033187;28;19917;-74
2023/10/21 03:15:52;;;;;;;;;;;;;;;10.95;93.88;99207.28;5014749;28;19913;-74
2023/10/21 03:18:18;;;;;;;;;;;;;;;10.95;93.84;99210.91;5013350;28;20403;-74
2023/10/21 03:20:43;;;;;;;;;;;;;;;10.99;93.52;99218.59;5014502;28;19920;-74
2023/10/21 03:23:10;;;;;;;;;;;;;;;10.97;94.11;99207.75;5033338;28;19917;-74
2023/10/21 03:25:35;;;;;;;;;;;;;;;11.00;94.43;99209.06;5032885;28;19917;-74
2023/10/21 03:28:00;;;;;;;;;;;;;;;10.83;95.01;99213.66;5034215;28;19971;-74
2023/10/21 03:30:30;;;;;;;;;;;;;;;10.89;95.22;99214.25;5031965;28;19913;-73
2023/10/21 03:32:55;;;;;;;;;;;;;;;10.76;96.36;99205.81;5033485;28;19921;-73
2023/10/21 03:35:20;;;;;;;;;;;;;;;10.48;98.32;99211.94;5029637;28;19921;-74
2023/10/21 03:37:46;;;;;;;;;;;;;;;10.78;96.88;99211.06;5014216;28;19971;-74
2023/10/21 03:40:11;;;;;;;;;;;;;;;10.87;96.04;99211.00;5014159;28;19921;-74
2023/10/21 03:42:37;;;;;;;;;;;;;;;11.01;95.26;99203.13;5014564;28;19921;-74
2023/10/21 03:45:04;;;;;;;;;;;;;;;11.03;94.71;99211.97;5015547;28;19917;-74
2023/10/21 03:47:30;;;;;;;;;;;;;;;11.18;93.55;99204.09;5014043;28;19952;-74
2023/10/21 03:49:55;;;;;;;;;;;;;;;11.05;93.39;99206.06;5012461;28;19971;-74
2023/10/21 03:52:20;;;;;;;;;;;;;;;11.03;94.15;99202.75;5014090;28;19929;-73
2023/10/21 03:54:45;;;;;;;;;;;;;;;11.16;93.41;99212.03;5031977;28;20372;-73
2023/10/21 03:57:11;;;;;;;;;;;;;;;11.18;92.71;99190.94;5032220;28;19967;-74
2023/10/21 03:59:37;;;;;;;;;;;;;;;11.18;91.98;99202.13;5016853;28;19917;-74
2023/10/21 04:02:03;;;;;;;;;;;;;;;11.03;92.29;99203.59;5028286;28;19924;-74
2023/10/21 04:04:28;;;;;;;;;;;;;;;11.17;91.08;99194.91;5012672;28;19913;-74
2023/10/21 04:06:53;;;;;;;;;;;;;;;11.09;91.19;99193.78;5031933;28;19948;-74
2023/10/21 04:09:19;;;;;;;;;;;;;;;10.83;92.30;99182.88;5028534;28;19924;-74
2023/10/21 04:11:45;;;;;;;;;;;;;;;10.93;91.63;99195.63;5013799;28;19920;-74
2023/10/21 04:14:10;;;;;;;;;;;;;;;11.12;90.97;99188.69;5023883;28;19920;-74
2023/10/21 04:16:36;;;;;;;;;;;;;;;10.80;91.25;99192.78;5032196;28;19921;-74
2023/10/21 04:19:01;;;;;;;;;;;;;;;10.49;92.50;99184.81;5015732;28;19921;-74
2023/10/21 04:21:27;;;;;;;;;;;;;;;10.50;93.69;99197.66;5011998;28;19944;-74
2023/10/21 04:23:52;;;;;;;;;;;;;;;10.64;92.89;99197.38;5013469;28;20368;-74
2023/10/21 04:26:17;;;;;;;;;;;;;;;10.58;93.26;99199.56;5012025;28;19935;-74
2023/10/21 04:28:43;;;;;;;;;;;;;;;10.79;92.17;99202.34;5012053;28;19991;-74
2023/10/21 04:31:08;;;;;;;;;;;;;;;10.69;91.29;99196.34;5030844;28;19917;-74
2023/10/21 04:33:33;;;;;;;;;;;;;;;10.55;91.50;99199.41;5020467;28;20384;-74
2023/10/21 04:35:59;;;;;;;;;;;;;;;10.45;92.21;99193.06;5036472;28;19917;-73
2023/10/21 04:38:24;;;;;;;;;;;;;;;10.50;92.31;99203.25;5032958;28;19914;-74
2023/10/21 04:40:49;;;;;;;;;;;;;;;10.71;91.79;99210.81;5032521;28;19921;-74
2023/10/21 04:43:15;;;;;;;;;;;;;;;10.77;91.27;99210.25;5030762;28;19972;-73
2023/10/21 04:45:40;;;;;;;;;;;;;;;10.80;91.23;99214.34;5031385;28;19920;-74
2023/10/21 04:48:06;;;;;;;;;;;;;;;10.81;90.80;99207.59;5017644;28;20388;-74
2023/10/21 04:50:31;;;;;;;;;;;;;;;10.80;91.08;99209.56;5012889;28;19917;-74
2023/10/21 04:52:56;;;;;;;;;;;;;;;10.87;90.58;99213.81;5012808;28;19920;-74
2023/10/21 04:55:22;;;;;;;;;;;;;;;10.77;91.45;99221.44;5027672;28;19987;-74
2023/10/21 04:57:47;;;;;;;;;;;;;;;10.85;91.28;99210.50;5011410;28;20368;-73
2023/10/21 05:00:14;;;;;;;;;;;;;;;10.84;91.33;99228.44;5011419;28;19996;-74
2023/10/21 05:02:40;;;;;;;;;;;;;;;10.23;93.26;99216.56;5026251;28;19917;-74
2023/10/21 05:05:05;;;;;;;;;;;;;;;10.52;93.95;99235.31;5030371;28;19932;-74
2023/10/21 05:07:31;;;;;;;;;;;;;;;10.64;93.25;99228.94;5032255;28;20048;-74
2023/10/21 05:09:57;;;;;;;;;;;;;;;10.49;93.78;99229.56;5031048;28;20311;-74
2023/10/21 05:12:22;;;;;;;;;;;;;;;10.56;93.69;99245.78;5022808;28;19917;-73
2023/10/21 05:14:48;;;;;;;;;;;;;;;10.65;93.25;99249.34;5026532;28;20412;-74
2023/10/21 05:17:13;;;;;;;;;;;;;;;10.73;92.46;99251.25;5020921;28;20003;-74
2023/10/21 05:19:39;;;;;;;;;;;;;;;10.23;95.48;99262.09;5049904;28;19917;-74
2023/10/21 05:22:04;;;;;;;;;;;;;;;10.19;95.87;99252.75;5028835;28;19921;-74
2023/10/21 05:24:29;;;;;;;;;;;;;;;10.25;96.55;99256.97;5022481;28;19999;-74
2023/10/21 05:26:54;;;;;;;;;;;;;;;10.35;97.02;99263.34;5023126;28;19917;-74
2023/10/21 05:29:20;;;;;;;;;;;;;;;10.62;95.09;99264.03;5013380;28;20064;-74
2023/10/21 05:31:45;;;;;;;;;;;;;;;10.40;95.40;99269.53;5019326;28;20408;-74
2023/10/21 05:34:17;;;;;;;;;;;;;;;9.89;99.80;99285.44;5028108;28;19928;-74
2023/10/21 05:36:43;;;;;;;;;;;;;;;10.16;98.66;99286.97;5031778;28;20336;-78
2023/10/21 05:39:08;;;;;;;;;;;;;;;10.40;98.43;99288.31;5020888;28;19933;-74
2023/10/21 05:41:33;;;;;;;;;;;;;;;10.64;97.05;99292.47;5026776;28;19929;-74
2023/10/21 05:43:58;;;;;;;;;;;;;;;10.49;97.92;99293.88;5030734;28;19917;-76
2023/10/21 05:46:24;;;;;;;;;;;;;;;10.87;96.79;99289.34;5030098;28;20000;-80
2023/10/21 05:48:49;;;;;;;;;;;;;;;10.89;96.60;99290.63;5030438;28;19929;-79
2023/10/21 05:51:14;;;;;;;;;;;;;;;10.83;97.22;99289.19;5017585;28;20018;-78
2023/10/21 05:53:40;;;;;;;;;;;;;;;10.99;96.78;99286.59;5026347;28;19967;-80
2023/10/21 05:56:05;;;;;;;;;;;;;;;11.01;97.36;99305.84;5025615;28;20068;-74
2023/10/21 05:58:31;;;;;;;;;;;;;;;11.10;97.65;99303.78;5030796;28;20435;-77
2023/10/21 06:00:56;;;;;;;;;;;;;;;11.45;96.76;99303.47;5030392;28;20380;-74
2023/10/21 06:03:21;;;;;;;;;;;;;;;11.47;96.36;99291.94;5030100;28;19947;-75
2023/10/21 06:05:47;;;;;;;;;;;;;;;11.85;94.48;99296.44;5026359;28;20459;-78
2023/10/21 06:08:12;;;;;;;;;;;;;;;11.63;96.00;99304.09;5033274;28;19924;-76
2023/10/21 06:10:38;;;;;;;;;;;;;;;11.64;96.29;99310.50;5019123;28;19917;-78
2023/10/21 06:13:04;;;;;;;;;;;;;;;11.79;95.57;99311.84;5011946;28;19925;-77
2023/10/21 06:15:30;;;;;;;;;;;;;;;11.62;96.28;99310.03;5029147;28;19918;-74
2023/10/21 06:17:56;;;;;;;;;;;;;;;11.71;96.29;99302.38;5025723;28;19922;-73
2023/10/21 06:20:21;;;;;;;;;;;;;;;11.45;98.14;99303.47;5013943;28;19921;-74
2023/10/21 06:22:47;;;;;;;;;;;;;;;11.66;99.53;99308.19;5022451;28;19914;-76
2023/10/21 06:25:14;;;;;;;;;;;;;;;11.76;98.94;99307.72;5013066;28;19917;-77
2023/10/21 06:27:39;;;;;;;;;;;;;;;11.82;99.99;99308.31;5016260;28;19984;-79
2023/10/21 06:30:05;;;;;;;;;;;;;;;11.85;100.00;99307.66;5012441;28;19913;-77
2023/10/21 06:32:30;;;;;;;;;;;;;;;11.79;100.00;99303.41;5029396;28;19917;-77
2023/10/21 06:34:56;;;;;;;;;;;;;;;12.11;100.00;99311.31;5030141;28;20434;-78
2023/10/21 06:37:21;;;;;;;;;;;;;;;12.17;100.00;99298.72;5022905;28;20400;-72
2023/10/21 06:39:47;;;;;;;;;;;;;;;12.35;99.51;99308.50;5031258;28;20400;-75
2023/10/21 06:42:12;;;;;;;;;;;;;;;12.52;98.54;99311.44;5029821;28;19957;-73
2023/10/21 06:44:38;;;;;;;;;;;;;;;12.56;98.88;99315.19;5027210;28;19971;-73
2023/10/21 06:47:03;;;;;;;;;;;;;;;12.64;98.00;99297.38;5031109;28;19913;-74
2023/10/21 06:49:29;;;;;;;;;;;;;;;12.72;97.90;99301.22;5029282;28;20012;-74
2023/10/21 06:51:55;;;;;;;;;;;;;;;12.78;97.62;99294.22;5022074;28;19925;-73
2023/10/21 06:54:20;;;;;;;;;;;;;;;12.96;97.10;99303.16;5023832;28;20016;-72
2023/10/21 06:56:46;;;;;;;;;;;;;;;13.16;96.71;99303.34;5015133;28;20357;-73
2023/10/21 06:59:13;;;;;;;;;;;;;;;13.31;96.41;99299.78;5009220;28;19917;-73
2023/10/21 07:01:38;;;;;;;;;;;;;;;13.73;95.68;99312.59;5011087;28;19917;-71
2023/10/21 07:04:04;;;;;;;;;;;;;;;13.88;93.11;99313.78;5030846;28;20395;-72
2023/10/21 07:06:29;;;;;;;;;;;;;;;14.11;92.25;99315.94;5022745;28;19924;-72
2023/10/21 07:08:54;;;;;;;;;;;;;;;14.09;91.65;99312.69;5019034;28;19929;-72
2023/10/21 07:11:20;;;;;;;;;;;;;;;14.34;91.06;99318.13;5033378;28;19920;-75
2023/10/21 07:13:46;;;;;;;;;;;;;;;14.23;90.18;99314.22;5034453;28;19913;-70
2023/10/21 07:16:11;;;;;;;;;;;;;;;14.50;90.31;99315.28;5027059;28;19983;-73
2023/10/21 07:18:37;;;;;;;;;;;;;;;14.84;89.15;99323.31;5014701;28;20389;-73
2023/10/21 07:21:03;;;;;;;;;;;;;;;14.91;87.38;99323.50;5023976;28;20296;-73
2023/10/21 07:23:28;;;;;;;;;;;;;;;15.12;86.80;99314.69;5033043;28;20003;-69
2023/10/21 07:25:53;;;;;;;;;;;;;;;15.24;86.60;99327.00;5034343;28;19952;-72
2023/10/21 07:28:19;;;;;;;;;;;;;;;15.45;85.43;99312.56;5032821;28;19913;-74
2023/10/21 07:30:44;;;;;;;;;;;;;;;15.50;84.80;99322.69;5033316;28;20407;-76
2023/10/21 07:33:09;;;;;;;;;;;;;;;15.61;84.73;99318.09;5018564;28;19917;-73
2023/10/21 07:35:35;;;;;;;;;;;;;;;15.84;83.12;99315.31;5025246;28;19917;-72
2023/10/21 07:38:00;;;;;;;;;;;;;;;15.84;82.95;99320.94;5033971;28;19989;-74
2023/10/21 07:40:27;;;;;;;;;;;;;;;15.85;82.94;99310.47;5034128;28;19919;-70
2023/10/21 07:42:53;;;;;;;;;;;;;;;15.41;84.76;99311.66;5031798;28;20004;-70
2023/10/21 07:45:18;;;;;;;;;;;;;;;15.57;84.33;99311.56;5033086;28;19998;-70
2023/10/21 07:47:43;;;;;;;;;;;;;;;15.76;83.95;99315.56;5033654;28;20024;-70
2023/10/21 07:50:09;;;;;;;;;;;;;;;16.06;83.19;99309.25;5028457;28;20427;-72
2023/10/21 07:52:37;;;;;;;;;;;;;;;16.21;82.50;99313.94;5025937;28;19917;-72
2023/10/21 07:55:03;;;;;;;;;;;;;;;15.98;83.49;99313.97;5025015;28;20384;-72
2023/10/21 07:57:28;;;;;;;;;;;;;;;16.15;83.18;99307.00;5033972;28;20047;-72
2023/10/21 07:59:54;;;;;;;;;;;;;;;16.14;83.02;99305.38;5032229;28;19913;-71
2023/10/21 08:02:19;;;;;;;;;;;;;;;16.48;81.76;99302.72;5024918;28;19917;-73
2023/10/21 08:04:48;;;;;;;;;;;;;;;16.73;81.94;99307.91;5024717;28;19913;-73
2023/10/21 08:07:13;;;;;;;;;;;;;;;16.94;81.74;99301.75;5031993;28;19913;-75
2023/10/21 08:09:39;;;;;;;;;;;;;;;17.21;80.30;99298.88;5024528;28;19931;-73
2023/10/21 08:12:04;;;;;;;;;;;;;;;17.40;79.27;99294.28;5028539;28;19932;-75
2023/10/21 08:14:31;;;;;;;;;;;;;;;17.60;79.30;99303.38;5031822;28;20370;-74
2023/10/21 08:16:57;;;;;;;;;;;;;;;17.82;78.88;99310.06;5014277;28;20412;-74
2023/10/21 08:19:24;;;;;;;;;;;;;;;18.01;76.78;99296.09;5012901;28;20000;-72
2023/10/21 08:21:49;;;;;;;;;;;;;;;18.15;75.96;99296.25;5030783;28;20008;-73
2023/10/21 08:24:15;;;;;;;;;;;;;;;18.32;76.92;99308.94;5014979;28;20470;-72
2023/10/21 08:26:41;;;;;;;;;;;;;;;18.51;76.35;99298.56;5026032;28;20020;-73
2023/10/21 08:29:06;;;;;;;;;;;;;;;18.60;76.09;99299.03;5031466;28;19913;-72
2023/10/21 08:31:31;;;;;;;;;;;;;;;18.72;75.60;99289.41;5030406;28;19925;-71
2023/10/21 08:33:57;;;;;;;;;;;;;;;18.93;75.14;99291.53;5022654;28;20035;-69
2023/10/21 08:36:22;;;;;;;;;;;;;;;19.06;75.50;99294.88;5026366;28;19925;-72
2023/10/21 08:38:48;;;;;;;;;;;;;;;19.07;75.78;99301.38;5022730;28;19917;-72
2023/10/21 08:41:14;;;;;;;;;;;;;;;19.08;76.39;99291.66;5016485;28;19918;-71
2023/10/21 08:43:43;;;;;;;;;;;;;;;19.16;75.82;99298.16;5026670;28;19917;-71
2023/10/21 08:46:09;;;;;;;;;;;;;;;19.37;75.33;99297.44;5023441;28;20284;-71
2023/10/21 08:48:34;;;;;;;;;;;;;;;19.48;75.10;99286.13;5025035;28;20017;-71
2023/10/21 08:51:02;;;;;;;;;;;;;;;19.57;74.22;99278.06;5015173;28;19925;-73
2023/10/21 08:53:43;;;;;;;;;;;;;;;19.60;74.61;99287.78;5016493;28;19925;-76
2023/10/21 08:56:11;;;;;;;;;;;;;;;19.79;73.41;99286.63;5031574;28;19979;-70
2023/10/21 08:58:36;;;;;;;;;;;;;;;19.87;73.10;99279.75;5049226;28;19923;-70
2023/10/21 09:01:01;;;;;;;;;;;;;;;20.06;72.55;99284.25;5032364;28;20339;-70
2023/10/21 09:03:27;;;;;;;;;;;;;;;20.28;71.63;99266.41;5013626;28;20008;-71
2023/10/21 09:06:03;;;;;;;;;;;;;;;20.27;71.62;99274.13;5011877;28;19967;-73
2023/10/21 09:08:32;;;;;;;;;;;;;;;20.42;70.89;99262.75;5014303;28;19921;-72
2023/10/21 09:10:59;;;;;;;;;;;;;;;20.55;71.29;99278.13;5017368;28;19921;-77
2023/10/21 09:13:29;;;;;;;;;;;;;;;20.74;70.39;99276.06;5021226;28;19917;-74
2023/10/21 09:15:54;;;;;;;;;;;;;;;20.85;70.02;99264.72;5016950;28;19962;-81
2023/10/21 09:18:19;;;;;;;;;;;;;;;20.89;69.12;99263.47;5021891;28;20001;-73
2023/10/21 09:20:49;;;;;;;;;;;;;;;20.90;69.63;99262.25;5031352;28;19913;-71
2023/10/21 09:23:14;;;;;;;;;;;;;;;20.96;68.67;99268.34;5023560;28;19925;-72
2023/10/21 09:25:39;;;;;;;;;;;;;;;21.04;68.71;99257.75;5023011;28;19921;-71
2023/10/21 09:28:05;;;;;;;;;;;;;;;21.09;67.98;99265.03;5025600;28;20415;-69
2023/10/21 09:30:30;;;;;;;;;;;;;;;21.24;67.71;99243.84;5016262;28;19995;-74
2023/10/21 09:33:07;;;;;;;;;;;;;;;21.39;67.71;99252.28;5025592;28;20410;-76
2023/10/21 09:35:32;;;;;;;;;;;;;;;21.51;66.67;99251.03;5010080;28;19928;-76
2023/10/21 09:38:14;;;;;;;;;;;;;;;21.62;66.41;99242.41;5008638;28;19925;-76
2023/10/21 09:40:39;;;;;;;;;;;;;;;21.80;65.05;99233.78;5013616;28;19921;-77
2023/10/21 09:43:05;;;;;;;;;;;;;;;21.90;64.03;99232.06;5021558;28;20424;-76
2023/10/21 09:45:31;;;;;;;;;;;;;;;21.99;64.56;99224.69;5023230;28;19924;-76
2023/10/21 09:47:59;;;;;;;;;;;;;;;22.09;64.48;99222.19;5021580;28;19925;-76
2023/10/21 09:50:24;;;;;;;;;;;;;;;22.20;63.71;99227.75;5026991;28;19921;-76
2023/10/21 09:53:01;;;;;;;;;;;;;;;22.06;64.46;99223.81;5019895;28;19913;-78
2023/10/21 09:55:31;;;;;;;;;;;;;;;22.33;62.93;99222.38;5011249;28;20396;-76
2023/10/21 09:58:00;;;;;;;;;;;;;;;22.53;62.47;99217.69;5025686;28;22500;-75
2023/10/21 10:00:25;;;;;;;;;;;;;;;22.73;60.69;99214.22;5020402;28;20311;-76
2023/10/21 10:02:53;;;;;;;;;;;;;;;22.80;60.58;99213.34;5015232;28;19924;-79
2023/10/21 10:05:20;;;;;;;;;;;;;;;22.85;59.46;99207.16;5011209;28;19917;-78
2023/10/21 10:07:46;;;;;;;;;;;;;;;23.06;60.50;99208.94;5011159;28;20383;-74
2023/10/21 10:10:13;;;;;;;;;;;;;;;23.28;57.65;99195.22;5011210;28;19917;-74
2023/10/21 10:12:44;;;;;;;;;;;;;;;23.27;57.71;99187.09;5026117;28;19917;-78
2023/10/21 10:15:28;;;;;;;;;;;;;;;23.39;56.03;99197.13;5029105;28;19983;-79
2023/10/21 10:17:53;;;;;;;;;;;;;;;23.54;56.56;99175.69;5021701;28;19928;-79
2023/10/21 10:20:26;;;;;;;;;;;;;;;23.61;55.23;99189.03;5015769;28;19918;-75
2023/10/21 10:23:00;;;;;;;;;;;;;;;23.53;56.17;99168.38;5012650;28;19921;-80
2023/10/21 10:25:36;;;;;;;;;;;;;;;23.76;57.04;99172.50;5029314;28;20028;-79
2023/10/21 10:28:09;;;;;;;;;;;;;;;23.95;55.47;99178.69;5028816;28;20424;-79
2023/10/21 10:30:38;;;;;;;;;;;;;;;24.08;54.49;99167.50;5023894;28;19924;-77
2023/10/21 10:33:06;;;;;;;;;;;;;;;24.11;54.31;99161.72;5019990;28;19917;-77
2023/10/21 10:35:40;;;;;;;;;;;;;;;24.24;54.12;99158.22;5029598;28;19917;-77
2023/10/21 10:38:20;;;;;;;;;;;;;;;24.37;53.64;99173.50;5031900;28;19920;-77
2023/10/21 10:40:45;;;;;;;;;;;;;;;24.52;53.25;99165.44;5020186;28;19917;-77
2023/10/21 10:43:11;;;;;;;;;;;;;;;24.56;52.91;99145.38;5032908;28;19917;-77
2023/10/21 10:45:37;;;;;;;;;;;;;;;24.72;52.18;99164.63;5032012;28;19921;-77
2023/10/21 10:48:04;;;;;;;;;;;;;;;24.80;51.91;99166.13;5025611;28;20312;-77
2023/10/21 10:50:30;;;;;;;;;;;;;;;24.82;51.71;99151.41;5015062;28;20020;-77
2023/10/21 10:52:55;;;;;;;;;;;;;;;24.99;50.90;99149.41;5013069;28;20004;-74
2023/10/21 10:55:21;;;;;;;;;;;;;;;24.98;50.25;99152.72;5022597;28;20348;-76
2023/10/21 10:57:47;;;;;;;;;;;;;;;25.00;51.02;99150.19;5012582;28;19921;-76
2023/10/21 11:00:20;;;;;;;;;;;;;;;25.17;50.14;99153.91;5024382;28;19921;-76
2023/10/21 11:02:46;;;;;;;;;;;;;;;25.21;49.31;99157.50;5022288;28;19956;-77
2023/10/21 11:05:21;;;;;;;;;;;;;;;25.28;49.00;99148.75;5024189;28;20872;-77
2023/10/21 11:07:50;;;;;;;;;;;;;;;25.35;48.87;99151.47;5016931;28;20000;-76
2023/10/21 11:10:22;;;;;;;;;;;;;;;25.41;48.58;99139.47;5027118;28;19995;-76
2023/10/21 11:12:51;;;;;;;;;;;;;;;25.41;48.33;99145.19;5031251;28;20394;-76
2023/10/21 11:15:17;;;;;;;;;;;;;;;25.63;47.63;99146.31;5028514;28;21124;-76
2023/10/21 11:17:43;;;;;;;;;;;;;;;25.53;47.53;99135.94;5027215;28;19959;-76
2023/10/21 11:20:08;;;;;;;;;;;;;;;25.57;46.95;99128.06;5019319;28;19975;-76
2023/10/21 11:22:34;;;;;;;;;;;;;;;25.71;47.00;99138.34;5044146;28;20403;-76
2023/10/21 11:24:59;;;;;;;;;;;;;;;25.82;46.21;99134.41;5028690;28;19920;-76
2023/10/21 11:27:25;;;;;;;;;;;;;;;25.79;45.82;99124.66;5028959;28;19925;-76
2023/10/21 11:29:52;;;;;;;;;;;;;;;25.86;46.50;99124.47;5021561;28;19917;-76
2023/10/21 11:32:38;;;;;;;;;;;;;;;25.99;46.36;99124.53;5026231;28;19921;-77
2023/10/21 11:35:11;;;;;;;;;;;;;;;26.05;45.72;99116.19;5019758;28;20339;-77
2023/10/21 11:37:39;;;;;;;;;;;;;;;26.20;45.09;99116.66;5022248;28;19927;-77
2023/10/21 11:40:05;;;;;;;;;;;;;;;26.17;45.70;99118.31;5022992;28;20027;-77
2023/10/21 11:42:32;;;;;;;;;;;;;;;26.10;45.17;99112.81;5019810;28;19913;-77
2023/10/21 11:44:59;;;;;;;;;;;;;;;26.14;44.97;99104.91;5027545;28;19928;-77
2023/10/21 11:47:28;;;;;;;;;;;;;;;26.21;44.99;99101.88;5026181;28;19916;-77
2023/10/21 11:49:54;;;;;;;;;;;;;;;26.35;43.61;99119.94;5020199;28;20008;-77
2023/10/21 11:52:21;;;;;;;;;;;;;;;26.39;43.48;99112.03;5025366;28;20292;-77
2023/10/21 11:54:46;;;;;;;;;;;;;;;26.56;44.21;99100.50;5025908;28;20368;-77
2023/10/21 11:57:41;;;;;;;;;;;;;;;26.63;43.63;99101.09;5024183;28;19957;-77
2023/10/21 12:16:05;;;;;;;;;;;;;;;27.03;43.55;99099.13;5028548;28;19913;-78
2023/10/21 12:43:23;;;;;;;;;;;;;;;27.77;39.45;99063.94;5005617;28;19917;-77
2023/10/21 12:45:40;;;;;;;;;;;;;;;27.71;39.75;99075.22;5026115;28;20307;-76
2023/10/21 12:48:08;;;;;;;;;;;;;;;27.68;38.49;99074.06;5025683;28;19937;-77
2023/10/21 12:50:34;;;;;;;;;;;;;;;27.80;38.91;99071.63;5024824;28;19930;-77
2023/10/21 12:53:01;;;;;;;;;;;;;;;27.89;38.23;99078.28;5012915;28;19929;-77
2023/10/21 12:55:26;;;;;;;;;;;;;;;27.87;37.55;99072.19;5022173;28;19974;-77
2023/10/21 12:57:53;;;;;;;;;;;;;;;27.89;37.92;99063.91;5021177;28;19925;-77
2023/10/21 13:00:20;;;;;;;;;;;;;;;27.86;38.07;99069.78;5016259;28;19917;-77
2023/10/21 13:02:46;;;;;;;;;;;;;;;27.88;38.03;99068.06;5015728;28;19960;-78
2023/10/21 13:05:13;;;;;;;;;;;;;;;27.86;37.97;99067.69;5023892;28;20600;-77
2023/10/21 13:07:39;;;;;;;;;;;;;;;27.91;38.69;99062.66;5020883;28;19917;-77
2023/10/21 13:10:05;;;;;;;;;;;;;;;27.95;38.85;99066.19;5021449;28;19920;-77
2023/10/21 13:12:30;;;;;;;;;;;;;;;28.06;38.26;99060.84;5011804;28;19917;-77
2023/10/21 13:14:55;;;;;;;;;;;;;;;27.93;38.42;99060.09;5012260;28;19928;-77
2023/10/21 13:17:22;;;;;;;;;;;;;;;27.92;38.89;99064.25;5010574;28;19929;-77
2023/10/21 13:19:47;;;;;;;;;;;;;;;27.87;38.65;99062.75;5018820;28;19917;-78
2023/10/21 13:22:13;;;;;;;;;;;;;;;27.95;38.77;99058.38;5026866;28;19917;-77